Cedar Bluff, Iowa
Current Conditions -  °F | °C
As of 7:52 PM on Friday 19 Dec 2014 (Local Time) from KIOW Reporting Station
Overcast Overcast  
Wind Chill: 30°   Ceiling: 2500
Heat Index: 30°   Visibility: 10mi
Dew Point: 22°   Wind: 3mph
Humidity: 72%   Direction: 120°ESE
Pressure: 30.26"   Gusts: NA
Location:  41.7563°N, 91.1443°W
Report Text: KIOW 200152Z AUTO 12003KT 10SM BKN025 OVC047 M01/M06 A3026 RMK AO2 SLP258 T10111056
Loading
Personal Weather Stations






























Interactive Weather Map New forecast layout! Learn more

10-Day Weather Forecast

Advertisements
Track Severe Weather on mobile